sensor_id;sensor_type;location;lat;lon;timestamp;temperature;humidity
25550;DHT22;13444;50.562;7.262;2022-07-15T00:00:00;18.50;99.90
25550;DHT22;13444;50.562;7.262;2022-07-15T00:02:26;18.50;99.90
25550;DHT22;13444;50.562;7.262;2022-07-15T00:04:52;18.50;99.90
25550;DHT22;13444;50.562;7.262;2022-07-15T00:07:17;18.50;99.90
25550;DHT22;13444;50.562;7.262;2022-07-15T00:09:43;18.50;99.90
25550;DHT22;13444;50.562;7.262;2022-07-15T00:12:27;18.50;99.90
25550;DHT22;13444;50.562;7.262;2022-07-15T00:14:52;18.50;99.90
25550;DHT22;13444;50.562;7.262;2022-07-15T00:17:18;18.50;99.90
25550;DHT22;13444;50.562;7.262;2022-07-15T00:19:44;18.50;99.90
25550;DHT22;13444;50.562;7.262;2022-07-15T00:22:09;18.40;99.90
25550;DHT22;13444;50.562;7.262;2022-07-15T00:24:35;18.50;99.90
25550;DHT22;13444;50.562;7.262;2022-07-15T00:27:00;18.40;99.90
25550;DHT22;13444;50.562;7.262;2022-07-15T00:29:28;18.40;99.90
25550;DHT22;13444;50.562;7.262;2022-07-15T00:31:54;18.40;99.90
25550;DHT22;13444;50.562;7.262;2022-07-15T00:34:20;18.50;99.90
25550;DHT22;13444;50.562;7.262;2022-07-15T00:36:46;18.40;99.90
25550;DHT22;13444;50.562;7.262;2022-07-15T00:39:11;18.40;99.90
25550;DHT22;13444;50.562;7.262;2022-07-15T00:41:38;18.40;99.90
25550;DHT22;13444;50.562;7.262;2022-07-15T00:44:04;18.30;99.90
25550;DHT22;13444;50.562;7.262;2022-07-15T00:46:30;18.30;99.90
25550;DHT22;13444;50.562;7.262;2022-07-15T00:48:57;18.30;99.90
25550;DHT22;13444;50.562;7.262;2022-07-15T00:51:23;18.20;99.90
25550;DHT22;13444;50.562;7.262;2022-07-15T00:53:48;18.20;99.90
25550;DHT22;13444;50.562;7.262;2022-07-15T00:56:15;18.20;99.90
25550;DHT22;13444;50.562;7.262;2022-07-15T00:58:43;18.10;99.90
25550;DHT22;13444;50.562;7.262;2022-07-15T01:01:10;18.10;99.90
25550;DHT22;13444;50.562;7.262;2022-07-15T01:03:36;18.10;99.90
25550;DHT22;13444;50.562;7.262;2022-07-15T01:06:02;18.10;99.90
25550;DHT22;13444;50.562;7.262;2022-07-15T01:08:28;18.00;99.90
25550;DHT22;13444;50.562;7.262;2022-07-15T01:10:54;18.00;99.90
25550;DHT22;13444;50.562;7.262;2022-07-15T01:13:20;17.90;99.90
25550;DHT22;13444;50.562;7.262;2022-07-15T01:15:47;17.90;99.90
25550;DHT22;13444;50.562;7.262;2022-07-15T01:18:13;17.80;99.90
25550;DHT22;13444;50.562;7.262;2022-07-15T01:20:43;17.80;99.90
25550;DHT22;13444;50.562;7.262;2022-07-15T01:23:11;17.70;99.90
25550;DHT22;13444;50.562;7.262;2022-07-15T01:25:38;17.60;99.90
25550;DHT22;13444;50.562;7.262;2022-07-15T01:28:05;17.60;99.90
25550;DHT22;13444;50.562;7.262;2022-07-15T01:30:31;17.60;99.90
25550;DHT22;13444;50.562;7.262;2022-07-15T01:32:57;17.50;99.90
25550;DHT22;13444;50.562;7.262;2022-07-15T01:35:23;17.40;99.90
25550;DHT22;13444;50.562;7.262;2022-07-15T01:37:48;17.40;99.90
25550;DHT22;13444;50.562;7.262;2022-07-15T01:40:14;17.40;99.90
25550;DHT22;13444;50.562;7.262;2022-07-15T01:42:40;17.40;99.90
25550;DHT22;13444;50.562;7.262;2022-07-15T01:45:06;17.30;99.90
25550;DHT22;13444;50.562;7.262;2022-07-15T01:47:32;17.30;99.90
25550;DHT22;13444;50.562;7.262;2022-07-15T01:49:59;17.20;99.90
25550;DHT22;13444;50.562;7.262;2022-07-15T01:52:24;17.20;99.90
25550;DHT22;13444;50.562;7.262;2022-07-15T01:54:50;17.10;99.90
25550;DHT22;13444;50.562;7.262;2022-07-15T01:57:16;17.10;99.90
25550;DHT22;13444;50.562;7.262;2022-07-15T01:59:42;17.10;99.90
25550;DHT22;13444;50.562;7.262;2022-07-15T02:02:07;17.00;99.90
25550;DHT22;13444;50.562;7.262;2022-07-15T02:04:33;17.00;99.90
25550;DHT22;13444;50.562;7.262;2022-07-15T02:06:58;17.00;99.90
25550;DHT22;13444;50.562;7.262;2022-07-15T02:09:25;16.90;99.90
25550;DHT22;13444;50.562;7.262;2022-07-15T02:11:50;16.90;99.90
25550;DHT22;13444;50.562;7.262;2022-07-15T02:14:16;16.80;99.90
25550;DHT22;13444;50.562;7.262;2022-07-15T02:16:42;16.80;99.90
25550;DHT22;13444;50.562;7.262;2022-07-15T02:19:07;16.80;99.90
25550;DHT22;13444;50.562;7.262;2022-07-15T02:21:34;16.80;99.90
25550;DHT22;13444;50.562;7.262;2022-07-15T02:23:59;16.70;99.90
25550;DHT22;13444;50.562;7.262;2022-07-15T02:26:25;16.70;99.90
25550;DHT22;13444;50.562;7.262;2022-07-15T02:28:51;16.60;99.90
25550;DHT22;13444;50.562;7.262;2022-07-15T02:31:17;16.50;99.90
25550;DHT22;13444;50.562;7.262;2022-07-15T02:33:42;16.50;99.90
25550;DHT22;13444;50.562;7.262;2022-07-15T02:36:08;16.40;99.90
25550;DHT22;13444;50.562;7.262;2022-07-15T02:38:34;16.30;99.90
25550;DHT22;13444;50.562;7.262;2022-07-15T02:41:00;16.30;99.90
25550;DHT22;13444;50.562;7.262;2022-07-15T02:43:25;16.20;99.90
25550;DHT22;13444;50.562;7.262;2022-07-15T02:45:51;16.20;99.90
25550;DHT22;13444;50.562;7.262;2022-07-15T02:48:16;16.20;99.90
25550;DHT22;13444;50.562;7.262;2022-07-15T02:50:42;16.20;99.90
25550;DHT22;13444;50.562;7.262;2022-07-15T02:53:08;16.20;99.90
25550;DHT22;13444;50.562;7.262;2022-07-15T02:55:34;16.10;99.90
25550;DHT22;13444;50.562;7.262;2022-07-15T02:58:00;16.10;99.90
25550;DHT22;13444;50.562;7.262;2022-07-15T03:00:26;16.10;99.90
25550;DHT22;13444;50.562;7.262;2022-07-15T03:02:51;16.10;99.90
25550;DHT22;13444;50.562;7.262;2022-07-15T03:05:18;16.00;99.90
25550;DHT22;13444;50.562;7.262;2022-07-15T03:07:44;15.90;99.90
25550;DHT22;13444;50.562;7.262;2022-07-15T03:10:11;15.90;99.90
25550;DHT22;13444;50.562;7.262;2022-07-15T03:12:37;15.80;99.90
25550;DHT22;13444;50.562;7.262;2022-07-15T03:15:04;15.80;99.90
25550;DHT22;13444;50.562;7.262;2022-07-15T03:17:30;15.80;99.90
25550;DHT22;13444;50.562;7.262;2022-07-15T03:19:55;15.80;99.90
25550;DHT22;13444;50.562;7.262;2022-07-15T03:22:25;15.80;99.90
25550;DHT22;13444;50.562;7.262;2022-07-15T03:24:51;15.70;99.90
25550;DHT22;13444;50.562;7.262;2022-07-15T03:27:17;15.70;99.90
25550;DHT22;13444;50.562;7.262;2022-07-15T03:29:43;15.70;99.90
25550;DHT22;13444;50.562;7.262;2022-07-15T03:32:09;15.70;99.90
25550;DHT22;13444;50.562;7.262;2022-07-15T03:34:37;15.60;99.90
25550;DHT22;13444;50.562;7.262;2022-07-15T03:37:03;15.60;99.90
25550;DHT22;13444;50.562;7.262;2022-07-15T03:39:29;15.60;99.90
25550;DHT22;13444;50.562;7.262;2022-07-15T03:41:54;15.70;99.90
25550;DHT22;13444;50.562;7.262;2022-07-15T03:44:20;15.80;99.90
25550;DHT22;13444;50.562;7.262;2022-07-15T03:46:46;15.90;99.90
25550;DHT22;13444;50.562;7.262;2022-07-15T03:49:15;15.90;99.90
25550;DHT22;13444;50.562;7.262;2022-07-15T03:51:42;15.90;99.90
25550;DHT22;13444;50.562;7.262;2022-07-15T03:54:07;15.90;99.90
25550;DHT22;13444;50.562;7.262;2022-07-15T03:56:33;16.00;99.90
25550;DHT22;13444;50.562;7.262;2022-07-15T03:58:59;16.00;99.90
25550;DHT22;13444;50.562;7.262;2022-07-15T04:01:25;16.00;99.90
25550;DHT22;13444;50.562;7.262;2022-07-15T04:03:51;16.00;99.90
25550;DHT22;13444;50.562;7.262;2022-07-15T04:06:18;16.00;99.90
25550;DHT22;13444;50.562;7.262;2022-07-15T04:08:44;16.00;99.90
25550;DHT22;13444;50.562;7.262;2022-07-15T04:11:10;16.10;99.90
25550;DHT22;13444;50.562;7.262;2022-07-15T04:13:36;16.10;99.90
25550;DHT22;13444;50.562;7.262;2022-07-15T04:16:01;16.10;99.90
25550;DHT22;13444;50.562;7.262;2022-07-15T04:18:27;16.10;99.90
25550;DHT22;13444;50.562;7.262;2022-07-15T04:20:53;16.20;99.90
25550;DHT22;13444;50.562;7.262;2022-07-15T04:23:18;16.10;99.90
25550;DHT22;13444;50.562;7.262;2022-07-15T04:25:44;16.20;99.90
25550;DHT22;13444;50.562;7.262;2022-07-15T04:28:13;16.20;99.90
25550;DHT22;13444;50.562;7.262;2022-07-15T04:30:38;16.20;99.90
25550;DHT22;13444;50.562;7.262;2022-07-15T04:33:04;16.20;99.90
25550;DHT22;13444;50.562;7.262;2022-07-15T04:35:29;16.30;99.90
25550;DHT22;13444;50.562;7.262;2022-07-15T04:37:55;16.40;99.90
25550;DHT22;13444;50.562;7.262;2022-07-15T04:40:20;16.70;99.90
25550;DHT22;13444;50.562;7.262;2022-07-15T04:42:46;17.10;99.90
25550;DHT22;13444;50.562;7.262;2022-07-15T04:45:12;17.40;99.90
25550;DHT22;13444;50.562;7.262;2022-07-15T04:47:38;17.70;99.90
25550;DHT22;13444;50.562;7.262;2022-07-15T04:50:04;17.80;99.90
25550;DHT22;13444;50.562;7.262;2022-07-15T04:52:48;18.00;99.90
25550;DHT22;13444;50.562;7.262;2022-07-15T04:55:14;18.10;99.90
25550;DHT22;13444;50.562;7.262;2022-07-15T04:57:40;18.20;99.90
25550;DHT22;13444;50.562;7.262;2022-07-15T05:00:07;18.30;99.90
25550;DHT22;13444;50.562;7.262;2022-07-15T05:02:33;18.30;99.90
25550;DHT22;13444;50.562;7.262;2022-07-15T05:04:59;18.20;99.90
25550;DHT22;13444;50.562;7.262;2022-07-15T05:07:24;18.10;99.90
25550;DHT22;13444;50.562;7.262;2022-07-15T05:09:50;18.10;99.90
25550;DHT22;13444;50.562;7.262;2022-07-15T05:12:15;18.20;99.90
25550;DHT22;13444;50.562;7.262;2022-07-15T05:14:41;18.40;99.90
25550;DHT22;13444;50.562;7.262;2022-07-15T05:17:07;18.60;99.90
25550;DHT22;13444;50.562;7.262;2022-07-15T05:19:33;18.80;99.90
25550;DHT22;13444;50.562;7.262;2022-07-15T05:21:59;18.80;99.90
25550;DHT22;13444;50.562;7.262;2022-07-15T05:24:25;18.90;99.90
25550;DHT22;13444;50.562;7.262;2022-07-15T05:26:50;19.00;99.90
25550;DHT22;13444;50.562;7.262;2022-07-15T05:29:16;19.00;99.90
25550;DHT22;13444;50.562;7.262;2022-07-15T05:31:41;19.20;99.90
25550;DHT22;13444;50.562;7.262;2022-07-15T05:34:08;19.30;99.90
25550;DHT22;13444;50.562;7.262;2022-07-15T05:36:33;19.50;99.90
25550;DHT22;13444;50.562;7.262;2022-07-15T05:38:59;19.70;99.90
25550;DHT22;13444;50.562;7.262;2022-07-15T05:41:24;19.80;99.90
25550;DHT22;13444;50.562;7.262;2022-07-15T05:43:50;19.80;99.90
25550;DHT22;13444;50.562;7.262;2022-07-15T05:46:15;19.70;99.90
25550;DHT22;13444;50.562;7.262;2022-07-15T05:48:41;19.30;99.90
25550;DHT22;13444;50.562;7.262;2022-07-15T05:51:07;19.00;99.90
25550;DHT22;13444;50.562;7.262;2022-07-15T05:53:33;18.70;99.90
25550;DHT22;13444;50.562;7.262;2022-07-15T05:55:59;18.50;99.90
25550;DHT22;13444;50.562;7.262;2022-07-15T05:58:25;18.30;99.90
25550;DHT22;13444;50.562;7.262;2022-07-15T06:00:51;18.20;99.90
25550;DHT22;13444;50.562;7.262;2022-07-15T06:03:17;18.20;99.90
25550;DHT22;13444;50.562;7.262;2022-07-15T06:05:43;18.10;99.90
25550;DHT22;13444;50.562;7.262;2022-07-15T06:08:08;18.10;99.90
25550;DHT22;13444;50.562;7.262;2022-07-15T06:10:36;18.40;99.90
25550;DHT22;13444;50.562;7.262;2022-07-15T06:13:02;18.70;99.90
25550;DHT22;13444;50.562;7.262;2022-07-15T06:15:28;19.20;99.90
25550;DHT22;13444;50.562;7.262;2022-07-15T06:17:53;19.60;99.90
25550;DHT22;13444;50.562;7.262;2022-07-15T06:20:19;19.90;99.90
25550;DHT22;13444;50.562;7.262;2022-07-15T06:22:44;20.20;99.90
25550;DHT22;13444;50.562;7.262;2022-07-15T06:25:11;20.40;99.90
25550;DHT22;13444;50.562;7.262;2022-07-15T06:27:36;20.20;99.90
25550;DHT22;13444;50.562;7.262;2022-07-15T06:30:03;20.00;99.90
25550;DHT22;13444;50.562;7.262;2022-07-15T06:32:29;19.70;99.90
25550;DHT22;13444;50.562;7.262;2022-07-15T06:34:54;19.50;99.90
25550;DHT22;13444;50.562;7.262;2022-07-15T06:37:20;19.30;99.90
25550;DHT22;13444;50.562;7.262;2022-07-15T06:39:46;19.30;99.90
25550;DHT22;13444;50.562;7.262;2022-07-15T06:42:12;19.30;99.90
25550;DHT22;13444;50.562;7.262;2022-07-15T06:44:37;19.30;99.90
25550;DHT22;13444;50.562;7.262;2022-07-15T06:47:03;19.40;99.90
25550;DHT22;13444;50.562;7.262;2022-07-15T06:49:29;19.50;99.90
25550;DHT22;13444;50.562;7.262;2022-07-15T06:51:55;19.50;99.90
25550;DHT22;13444;50.562;7.262;2022-07-15T06:54:20;19.50;99.90
25550;DHT22;13444;50.562;7.262;2022-07-15T06:56:46;19.60;99.90
25550;DHT22;13444;50.562;7.262;2022-07-15T06:59:12;19.70;99.90
25550;DHT22;13444;50.562;7.262;2022-07-15T07:01:37;19.60;99.90
25550;DHT22;13444;50.562;7.262;2022-07-15T07:04:03;19.70;99.90
25550;DHT22;13444;50.562;7.262;2022-07-15T07:06:29;19.80;99.90
25550;DHT22;13444;50.562;7.262;2022-07-15T07:08:55;19.80;99.90
25550;DHT22;13444;50.562;7.262;2022-07-15T07:11:21;19.70;99.90
25550;DHT22;13444;50.562;7.262;2022-07-15T07:13:47;19.50;99.90
25550;DHT22;13444;50.562;7.262;2022-07-15T07:16:13;19.30;99.90
25550;DHT22;13444;50.562;7.262;2022-07-15T07:18:38;19.20;99.90
25550;DHT22;13444;50.562;7.262;2022-07-15T07:21:04;19.10;99.90
25550;DHT22;13444;50.562;7.262;2022-07-15T07:23:30;19.00;99.90
25550;DHT22;13444;50.562;7.262;2022-07-15T07:25:57;18.90;99.90
25550;DHT22;13444;50.562;7.262;2022-07-15T07:28:23;18.80;99.90
25550;DHT22;13444;50.562;7.262;2022-07-15T07:30:48;19.00;99.90
25550;DHT22;13444;50.562;7.262;2022-07-15T07:33:16;19.20;99.90
25550;DHT22;13444;50.562;7.262;2022-07-15T07:35:42;19.30;99.90
25550;DHT22;13444;50.562;7.262;2022-07-15T07:38:09;19.40;99.90
25550;DHT22;13444;50.562;7.262;2022-07-15T07:40:35;19.40;99.90
25550;DHT22;13444;50.562;7.262;2022-07-15T07:43:00;19.40;99.90
25550;DHT22;13444;50.562;7.262;2022-07-15T07:45:26;19.20;99.90
25550;DHT22;13444;50.562;7.262;2022-07-15T07:47:54;19.10;99.90
25550;DHT22;13444;50.562;7.262;2022-07-15T07:50:20;19.20;99.90
25550;DHT22;13444;50.562;7.262;2022-07-15T07:52:45;19.20;99.90
25550;DHT22;13444;50.562;7.262;2022-07-15T07:55:11;19.30;99.90
25550;DHT22;13444;50.562;7.262;2022-07-15T07:57:50;19.40;99.90
25550;DHT22;13444;50.562;7.262;2022-07-15T08:00:16;19.40;99.90
25550;DHT22;13444;50.562;7.262;2022-07-15T08:02:43;19.40;99.90
25550;DHT22;13444;50.562;7.262;2022-07-15T08:05:09;19.40;99.90
25550;DHT22;13444;50.562;7.262;2022-07-15T08:07:35;19.40;99.90
25550;DHT22;13444;50.562;7.262;2022-07-15T08:10:05;19.40;99.90
25550;DHT22;13444;50.562;7.262;2022-07-15T08:12:31;19.40;99.90
25550;DHT22;13444;50.562;7.262;2022-07-15T08:14:57;19.40;99.90
25550;DHT22;13444;50.562;7.262;2022-07-15T08:17:23;19.60;99.90
25550;DHT22;13444;50.562;7.262;2022-07-15T08:19:48;20.10;99.90
25550;DHT22;13444;50.562;7.262;2022-07-15T08:22:14;20.60;99.90
25550;DHT22;13444;50.562;7.262;2022-07-15T08:24:40;20.80;99.90
25550;DHT22;13444;50.562;7.262;2022-07-15T08:27:06;21.00;99.90
25550;DHT22;13444;50.562;7.262;2022-07-15T08:29:32;20.90;99.90
25550;DHT22;13444;50.562;7.262;2022-07-15T08:31:57;20.80;99.90
25550;DHT22;13444;50.562;7.262;2022-07-15T08:34:23;20.80;99.90
25550;DHT22;13444;50.562;7.262;2022-07-15T08:36:49;20.60;99.90
25550;DHT22;13444;50.562;7.262;2022-07-15T08:39:14;20.50;99.90
25550;DHT22;13444;50.562;7.262;2022-07-15T08:41:41;20.50;99.90
25550;DHT22;13444;50.562;7.262;2022-07-15T08:44:07;20.60;99.90
25550;DHT22;13444;50.562;7.262;2022-07-15T08:46:35;20.90;99.90
25550;DHT22;13444;50.562;7.262;2022-07-15T08:49:12;21.60;99.90
25550;DHT22;13444;50.562;7.262;2022-07-15T08:51:43;22.50;99.90
25550;DHT22;13444;50.562;7.262;2022-07-15T08:54:09;23.10;99.90
25550;DHT22;13444;50.562;7.262;2022-07-15T08:56:35;23.30;99.90
25550;DHT22;13444;50.562;7.262;2022-07-15T08:59:03;23.30;99.90
25550;DHT22;13444;50.562;7.262;2022-07-15T09:01:30;23.40;99.90
25550;DHT22;13444;50.562;7.262;2022-07-15T09:03:57;23.50;99.90
25550;DHT22;13444;50.562;7.262;2022-07-15T09:06:37;23.40;99.90
25550;DHT22;13444;50.562;7.262;2022-07-15T09:09:23;23.40;99.90
25550;DHT22;13444;50.562;7.262;2022-07-15T09:14:27;23.10;99.90
25550;DHT22;13444;50.562;7.262;2022-07-15T09:20:03;23.60;99.90
25550;DHT22;13444;50.562;7.262;2022-07-15T09:22:32;23.80;99.90
25550;DHT22;13444;50.562;7.262;2022-07-15T09:25:05;24.70;99.90
25550;DHT22;13444;50.562;7.262;2022-07-15T09:27:37;25.60;99.90
25550;DHT22;13444;50.562;7.262;2022-07-15T09:30:24;26.30;99.90
25550;DHT22;13444;50.562;7.262;2022-07-15T09:33:14;26.20;99.90
25550;DHT22;13444;50.562;7.262;2022-07-15T09:38:35;24.90;99.90
25550;DHT22;13444;50.562;7.262;2022-07-15T09:41:01;24.10;99.90
25550;DHT22;13444;50.562;7.262;2022-07-15T09:43:28;23.80;99.90
25550;DHT22;13444;50.562;7.262;2022-07-15T09:45:59;24.00;99.90
25550;DHT22;13444;50.562;7.262;2022-07-15T09:48:26;24.50;99.90
25550;DHT22;13444;50.562;7.262;2022-07-15T09:51:00;25.10;99.90
25550;DHT22;13444;50.562;7.262;2022-07-15T09:53:27;25.70;99.90
25550;DHT22;13444;50.562;7.262;2022-07-15T09:55:53;26.00;98.90
25550;DHT22;13444;50.562;7.262;2022-07-15T09:58:19;26.30;98.70
25550;DHT22;13444;50.562;7.262;2022-07-15T10:00:46;26.60;98.20
25550;DHT22;13444;50.562;7.262;2022-07-15T10:03:12;27.00;96.90
25550;DHT22;13444;50.562;7.262;2022-07-15T10:05:39;26.90;96.70
25550;DHT22;13444;50.562;7.262;2022-07-15T10:08:06;26.70;94.90
25550;DHT22;13444;50.562;7.262;2022-07-15T10:10:35;26.40;94.90
25550;DHT22;13444;50.562;7.262;2022-07-15T10:13:11;26.20;95.90
25550;DHT22;13444;50.562;7.262;2022-07-15T10:16:07;26.20;95.20
25550;DHT22;13444;50.562;7.262;2022-07-15T10:21:41;25.70;95.50
25550;DHT22;13444;50.562;7.262;2022-07-15T10:27:05;26.30;95.60
25550;DHT22;13444;50.562;7.262;2022-07-15T10:29:33;26.80;93.90
25550;DHT22;13444;50.562;7.262;2022-07-15T10:32:00;27.30;93.90
25550;DHT22;13444;50.562;7.262;2022-07-15T10:34:37;27.20;93.40
25550;DHT22;13444;50.562;7.262;2022-07-15T10:37:08;26.30;92.20
25550;DHT22;13444;50.562;7.262;2022-07-15T10:39:58;25.60;93.60
25550;DHT22;13444;50.562;7.262;2022-07-15T10:43:00;25.20;94.10
25550;DHT22;13444;50.562;7.262;2022-07-15T10:45:27;24.90;94.10
25550;DHT22;13444;50.562;7.262;2022-07-15T10:48:24;24.90;94.90
25550;DHT22;13444;50.562;7.262;2022-07-15T10:50:50;25.20;95.70
25550;DHT22;13444;50.562;7.262;2022-07-15T10:53:19;25.70;95.80
25550;DHT22;13444;50.562;7.262;2022-07-15T10:55:45;26.40;94.60
25550;DHT22;13444;50.562;7.262;2022-07-15T10:58:12;27.20;94.30
25550;DHT22;13444;50.562;7.262;2022-07-15T11:00:37;27.80;92.00
25550;DHT22;13444;50.562;7.262;2022-07-15T11:03:12;28.10;92.60
25550;DHT22;13444;50.562;7.262;2022-07-15T11:06:03;28.20;92.30
25550;DHT22;13444;50.562;7.262;2022-07-15T11:13:39;28.40;91.20
25550;DHT22;13444;50.562;7.262;2022-07-15T11:16:05;27.90;89.20
25550;DHT22;13444;50.562;7.262;2022-07-15T11:18:54;27.50;90.20
25550;DHT22;13444;50.562;7.262;2022-07-15T11:21:22;27.30;88.70
25550;DHT22;13444;50.562;7.262;2022-07-15T11:23:49;27.30;90.70
25550;DHT22;13444;50.562;7.262;2022-07-15T11:26:15;27.90;90.80
25550;DHT22;13444;50.562;7.262;2022-07-15T11:28:54;28.30;89.20
25550;DHT22;13444;50.562;7.262;2022-07-15T11:31:21;28.40;87.90
25550;DHT22;13444;50.562;7.262;2022-07-15T11:33:46;28.30;89.20
25550;DHT22;13444;50.562;7.262;2022-07-15T11:36:19;28.10;86.40
25550;DHT22;13444;50.562;7.262;2022-07-15T11:38:47;28.20;87.10
25550;DHT22;13444;50.562;7.262;2022-07-15T11:41:13;28.40;86.80
25550;DHT22;13444;50.562;7.262;2022-07-15T11:44:11;27.90;87.60
25550;DHT22;13444;50.562;7.262;2022-07-15T11:46:57;27.50;88.40
25550;DHT22;13444;50.562;7.262;2022-07-15T11:49:34;27.20;89.50
25550;DHT22;13444;50.562;7.262;2022-07-15T11:52:03;27.20;88.50
25550;DHT22;13444;50.562;7.262;2022-07-15T11:54:29;27.50;88.10
25550;DHT22;13444;50.562;7.262;2022-07-15T11:56:56;27.90;88.50
25550;DHT22;13444;50.562;7.262;2022-07-15T11:59:22;28.50;88.20
25550;DHT22;13444;50.562;7.262;2022-07-15T12:01:48;28.90;86.00
25550;DHT22;13444;50.562;7.262;2022-07-15T12:04:28;29.00;85.70
25550;DHT22;13444;50.562;7.262;2022-07-15T12:06:54;29.20;85.50
25550;DHT22;13444;50.562;7.262;2022-07-15T12:09:19;29.20;84.20
25550;DHT22;13444;50.562;7.262;2022-07-15T12:11:45;28.80;82.90
25550;DHT22;13444;50.562;7.262;2022-07-15T12:14:13;28.60;83.70
25550;DHT22;13444;50.562;7.262;2022-07-15T12:16:52;28.90;84.60
25550;DHT22;13444;50.562;7.262;2022-07-15T12:19:27;29.30;83.50
25550;DHT22;13444;50.562;7.262;2022-07-15T12:22:00;29.60;82.40
25550;DHT22;13444;50.562;7.262;2022-07-15T12:24:46;29.70;81.80
25550;DHT22;13444;50.562;7.262;2022-07-15T12:27:16;29.50;80.90
25550;DHT22;13444;50.562;7.262;2022-07-15T12:29:42;29.70;80.70
25550;DHT22;13444;50.562;7.262;2022-07-15T12:32:11;29.30;78.50
25550;DHT22;13444;50.562;7.262;2022-07-15T12:37:18;29.60;80.80
25550;DHT22;13444;50.562;7.262;2022-07-15T12:42:18;29.20;80.00
25550;DHT22;13444;50.562;7.262;2022-07-15T12:44:44;28.70;77.90
25550;DHT22;13444;50.562;7.262;2022-07-15T12:47:09;28.50;79.00
25550;DHT22;13444;50.562;7.262;2022-07-15T12:54:40;27.90;81.10
25550;DHT22;13444;50.562;7.262;2022-07-15T12:57:06;27.80;79.80
25550;DHT22;13444;50.562;7.262;2022-07-15T12:59:52;27.30;79.30
25550;DHT22;13444;50.562;7.262;2022-07-15T13:02:18;27.30;80.30
25550;DHT22;13444;50.562;7.262;2022-07-15T13:04:44;27.40;80.40
25550;DHT22;13444;50.562;7.262;2022-07-15T13:07:09;27.40;81.00
25550;DHT22;13444;50.562;7.262;2022-07-15T13:09:35;27.70;81.00
25550;DHT22;13444;50.562;7.262;2022-07-15T13:12:00;28.10;79.90
25550;DHT22;13444;50.562;7.262;2022-07-15T13:14:26;28.30;80.70
25550;DHT22;13444;50.562;7.262;2022-07-15T13:16:52;28.50;79.10
25550;DHT22;13444;50.562;7.262;2022-07-15T13:19:17;28.40;78.70
25550;DHT22;13444;50.562;7.262;2022-07-15T13:21:43;28.20;79.10
25550;DHT22;13444;50.562;7.262;2022-07-15T13:24:09;28.40;79.90
25550;DHT22;13444;50.562;7.262;2022-07-15T13:26:34;28.40;79.10
25550;DHT22;13444;50.562;7.262;2022-07-15T13:29:00;28.40;79.10
25550;DHT22;13444;50.562;7.262;2022-07-15T13:31:25;28.30;79.80
25550;DHT22;13444;50.562;7.262;2022-07-15T13:33:50;28.30;79.40
25550;DHT22;13444;50.562;7.262;2022-07-15T13:36:16;28.40;78.10
25550;DHT22;13444;50.562;7.262;2022-07-15T13:38:42;28.70;77.60
25550;DHT22;13444;50.562;7.262;2022-07-15T13:41:07;28.60;75.20
25550;DHT22;13444;50.562;7.262;2022-07-15T13:43:33;28.20;76.00
25550;DHT22;13444;50.562;7.262;2022-07-15T13:45:59;28.10;76.90
25550;DHT22;13444;50.562;7.262;2022-07-15T13:48:25;27.70;76.80
25550;DHT22;13444;50.562;7.262;2022-07-15T13:50:51;27.50;78.20
25550;DHT22;13444;50.562;7.262;2022-07-15T13:53:35;27.00;78.90
25550;DHT22;13444;50.562;7.262;2022-07-15T13:56:00;26.90;80.20
25550;DHT22;13444;50.562;7.262;2022-07-15T13:58:26;26.90;80.70
25550;DHT22;13444;50.562;7.262;2022-07-15T14:00:51;26.90;81.20
25550;DHT22;13444;50.562;7.262;2022-07-15T14:03:17;27.00;81.30
25550;DHT22;13444;50.562;7.262;2022-07-15T14:05:43;27.20;82.80
25550;DHT22;13444;50.562;7.262;2022-07-15T14:08:08;27.30;82.00
25550;DHT22;13444;50.562;7.262;2022-07-15T14:10:34;27.20;79.40
25550;DHT22;13444;50.562;7.262;2022-07-15T14:13:00;26.60;79.50
25550;DHT22;13444;50.562;7.262;2022-07-15T14:15:27;26.50;82.00
25550;DHT22;13444;50.562;7.262;2022-07-15T14:17:53;26.50;81.10
25550;DHT22;13444;50.562;7.262;2022-07-15T14:20:19;26.40;81.00
25550;DHT22;13444;50.562;7.262;2022-07-15T14:22:44;26.20;80.00
25550;DHT22;13444;50.562;7.262;2022-07-15T14:25:10;25.80;81.70
25550;DHT22;13444;50.562;7.262;2022-07-15T14:27:36;25.50;82.20
25550;DHT22;13444;50.562;7.262;2022-07-15T14:30:03;25.30;82.80
25550;DHT22;13444;50.562;7.262;2022-07-15T14:32:28;25.30;82.50
25550;DHT22;13444;50.562;7.262;2022-07-15T14:34:54;25.10;82.50
25550;DHT22;13444;50.562;7.262;2022-07-15T14:37:19;25.00;83.50
25550;DHT22;13444;50.562;7.262;2022-07-15T14:39:45;25.10;84.20
25550;DHT22;13444;50.562;7.262;2022-07-15T14:42:11;25.20;84.50
25550;DHT22;13444;50.562;7.262;2022-07-15T14:44:37;25.20;84.30
25550;DHT22;13444;50.562;7.262;2022-07-15T14:47:03;25.30;83.00
25550;DHT22;13444;50.562;7.262;2022-07-15T14:49:29;25.30;83.40
25550;DHT22;13444;50.562;7.262;2022-07-15T14:51:54;25.40;83.60
25550;DHT22;13444;50.562;7.262;2022-07-15T14:54:20;25.50;84.30
25550;DHT22;13444;50.562;7.262;2022-07-15T14:56:45;25.60;84.40
25550;DHT22;13444;50.562;7.262;2022-07-15T14:59:11;25.60;83.80
25550;DHT22;13444;50.562;7.262;2022-07-15T15:01:37;25.60;82.70
25550;DHT22;13444;50.562;7.262;2022-07-15T15:04:02;25.70;83.50
25550;DHT22;13444;50.562;7.262;2022-07-15T15:06:28;25.50;82.20
25550;DHT22;13444;50.562;7.262;2022-07-15T15:08:54;25.40;82.70
25550;DHT22;13444;50.562;7.262;2022-07-15T15:11:19;25.30;84.00
25550;DHT22;13444;50.562;7.262;2022-07-15T15:13:45;25.20;82.60
25550;DHT22;13444;50.562;7.262;2022-07-15T15:16:11;25.30;83.50
25550;DHT22;13444;50.562;7.262;2022-07-15T15:18:36;25.20;83.60
25550;DHT22;13444;50.562;7.262;2022-07-15T15:21:02;25.10;84.10
25550;DHT22;13444;50.562;7.262;2022-07-15T15:23:28;24.90;83.70
25550;DHT22;13444;50.562;7.262;2022-07-15T15:25:54;24.70;84.90
25550;DHT22;13444;50.562;7.262;2022-07-15T15:28:38;24.70;90.20
25550;DHT22;13444;50.562;7.262;2022-07-15T15:31:04;24.60;90.10
25550;DHT22;13444;50.562;7.262;2022-07-15T15:33:29;24.80;90.70
25550;DHT22;13444;50.562;7.262;2022-07-15T15:35:55;24.90;88.00
25550;DHT22;13444;50.562;7.262;2022-07-15T15:38:21;24.90;88.60
25550;DHT22;13444;50.562;7.262;2022-07-15T15:40:46;24.80;89.00
25550;DHT22;13444;50.562;7.262;2022-07-15T15:43:12;24.70;89.60
25550;DHT22;13444;50.562;7.262;2022-07-15T15:45:39;24.70;89.20
25550;DHT22;13444;50.562;7.262;2022-07-15T15:48:05;24.50;89.60
25550;DHT22;13444;50.562;7.262;2022-07-15T15:50:31;24.50;89.60
25550;DHT22;13444;50.562;7.262;2022-07-15T15:52:56;24.50;90.10
25550;DHT22;13444;50.562;7.262;2022-07-15T15:55:22;24.60;88.20
25550;DHT22;13444;50.562;7.262;2022-07-15T15:57:47;24.70;87.60
25550;DHT22;13444;50.562;7.262;2022-07-15T16:00:13;24.80;89.70